Time;durP1;ratioP1;P1;durP2;ratioP2;P2;SDS_P1;SDS_P2;PMS_P1;PMS_P2;Temp;Humidity;BMP_temperature;BMP_pressure;BME280_temperature;BME280_humidity;BME280_pressure;Samples;Min_cycle;Max_cycle;Signal;HPM_P1;HPM_P2
2022/08/12 00:43:34;;;;;;;4.47;2.10;;;;;;;16.48;52.48;96048.22;5037555;28;24477;-69
2022/08/12 00:48:45;;;;;;;5.45;1.77;;;;;;;16.52;52.67;96049.63;5026754;28;24434;-69
2022/08/12 00:51:14;;;;;;;4.18;1.50;;;;;;;16.60;52.65;96047.19;5043213;28;24482;-69
2022/08/12 00:53:40;;;;;;;2.70;1.67;;;;;;;16.59;52.62;96054.22;5039928;28;24840;-69
2022/08/12 00:56:08;;;;;;;7.87;1.83;;;;;;;16.65;52.58;96047.66;5041561;28;24431;-69
2022/08/12 00:58:35;;;;;;;2.60;1.70;;;;;;;16.65;52.65;96043.25;5039461;28;24436;-69
2022/08/12 01:01:05;;;;;;;3.85;1.98;;;;;;;16.68;52.37;96052.63;5043086;28;24454;-69
2022/08/12 01:11:49;;;;;;;2.65;2.20;;;;;;;16.57;52.65;96063.13;5029678;28;24500;-72
2022/08/12 01:14:19;;;;;;;2.30;1.85;;;;;;;16.50;53.18;96059.34;5041173;28;24452;-72
2022/08/12 01:16:47;;;;;;;3.20;2.10;;;;;;;16.50;53.19;96061.97;5024633;28;24438;-72
2022/08/12 01:19:14;;;;;;;4.75;2.08;;;;;;;16.49;52.74;96057.72;5039119;28;24538;-71
2022/08/12 01:22:02;;;;;;;1.60;1.50;;;;;;;16.52;52.68;96058.28;5039365;28;24442;-71
2022/08/12 01:24:55;;;;;;;5.85;2.10;;;;;;;16.54;52.73;96059.00;5037571;28;24981;-70
2022/08/12 01:27:24;;;;;;;3.05;2.15;;;;;;;16.52;53.19;96054.84;5040143;28;24489;-70
2022/08/12 01:29:52;;;;;;;2.58;2.20;;;;;;;16.54;52.77;96056.38;5043001;28;24446;-69
2022/08/12 01:32:21;;;;;;;2.13;1.93;;;;;;;16.56;52.75;96054.47;5037405;28;24526;-69
2022/08/12 01:34:54;;;;;;;2.67;1.67;;;;;;;16.60;52.96;96050.63;5040969;28;24992;-69
2022/08/12 01:37:25;;;;;;;3.17;2.13;;;;;;;16.61;53.28;96060.16;5039897;28;24485;-71
2022/08/12 01:39:54;;;;;;;5.20;2.08;;;;;;;16.62;53.31;96059.19;5043122;28;24442;-71
2022/08/12 01:42:24;;;;;;;2.72;2.00;;;;;;;16.66;53.31;96059.78;5038388;28;24479;-71
2022/08/12 01:44:52;;;;;;;2.40;2.00;;;;;;;16.66;53.39;96060.59;5037055;28;24443;-72
2022/08/12 01:47:32;;;;;;;3.40;2.15;;;;;;;16.67;53.44;96057.03;5031805;28;24991;-75
2022/08/12 01:50:12;;;;;;;5.20;2.30;;;;;;;16.56;53.52;96053.63;5042306;28;24439;-71
2022/08/12 01:52:51;;;;;;;2.63;2.00;;;;;;;16.52;53.64;96044.38;5038249;28;24447;-70
2022/08/12 01:55:22;;;;;;;2.75;1.83;;;;;;;16.54;53.74;96045.06;5038611;28;24547;-71
2022/08/12 01:57:54;;;;;;;2.28;2.08;;;;;;;16.55;53.75;96041.53;5039068;28;25064;-71
2022/08/12 02:00:19;;;;;;;4.57;2.03;;;;;;;16.56;53.87;96044.00;5040705;28;24491;-69
2022/08/12 02:02:52;;;;;;;2.40;2.00;;;;;;;16.55;54.16;96046.75;5039307;28;24439;-70
2022/08/12 02:11:22;;;;;;;4.50;1.88;;;;;;;16.25;55.35;96050.91;5035989;28;24447;-70
2022/08/12 02:14:13;;;;;;;5.18;1.83;;;;;;;16.23;55.19;96047.59;5037401;28;24439;-70
2022/08/12 02:17:04;;;;;;;2.90;2.00;;;;;;;16.26;55.15;96044.72;5042897;28;25229;-70
2022/08/12 02:19:56;;;;;;;4.33;2.10;;;;;;;16.29;55.23;96034.03;5041442;28;24535;-70
2022/08/12 02:22:37;;;;;;;4.30;2.30;;;;;;;16.33;55.01;96032.00;5042581;28;24527;-70
2022/08/12 02:25:08;;;;;;;2.25;1.90;;;;;;;16.33;55.04;96022.38;5043808;28;24498;-70
2022/08/12 02:27:39;;;;;;;3.25;1.83;;;;;;;16.32;55.02;96022.50;5042542;28;24798;-70
2022/08/12 02:30:08;;;;;;;2.45;1.70;;;;;;;16.31;54.95;96020.81;5044194;28;24534;-70
2022/08/12 02:32:39;;;;;;;2.10;1.90;;;;;;;16.36;54.44;96018.69;5041791;28;24539;-70
2022/08/12 02:35:07;;;;;;;3.38;2.00;;;;;;;16.33;54.57;96011.09;5043839;28;24505;-70
2022/08/12 02:37:35;;;;;;;4.30;2.00;;;;;;;16.34;54.27;96016.19;5041203;28;25129;-70
2022/08/12 02:40:03;;;;;;;4.75;2.17;;;;;;;16.40;54.57;96012.25;5036967;28;24543;-70
2022/08/12 02:42:34;;;;;;;2.60;2.00;;;;;;;16.41;54.72;96011.28;5032375;28;24530;-70
2022/08/12 02:45:07;;;;;;;3.05;2.20;;;;;;;16.26;55.36;96008.13;5041562;28;24439;-70
2022/08/12 02:47:39;;;;;;;3.45;2.28;;;;;;;15.86;56.81;96003.53;5042315;28;24989;-70
2022/08/12 02:50:07;;;;;;;4.18;2.50;;;;;;;15.88;56.97;96006.03;5044058;28;24518;-69
2022/08/12 02:52:34;;;;;;;3.80;2.10;;;;;;;15.68;57.30;96004.97;5043599;28;24474;-69
2022/08/12 02:55:12;;;;;;;2.20;1.77;;;;;;;15.00;59.76;96010.22;5037244;28;24458;-69
2022/08/12 02:57:40;;;;;;;4.22;2.30;;;;;;;14.96;59.75;96013.19;5039141;28;24436;-71
2022/08/12 03:00:10;;;;;;;4.68;2.30;;;;;;;14.82;60.57;96010.78;5043883;28;24535;-70
2022/08/12 03:02:39;;;;;;;2.50;2.15;;;;;;;14.83;61.17;96018.50;5044243;28;24841;-69
2022/08/12 03:05:06;;;;;;;3.58;2.40;;;;;;;14.94;60.28;96017.66;5042377;28;24438;-69
2022/08/12 03:07:43;;;;;;;3.50;2.33;;;;;;;14.95;60.40;96017.56;5038347;28;24440;-69
2022/08/12 03:10:12;;;;;;;2.92;2.25;;;;;;;14.87;61.00;96014.72;5043523;28;24445;-68
2022/08/12 03:12:40;;;;;;;2.75;2.20;;;;;;;14.90;60.59;96021.47;5040267;28;24455;-68
2022/08/12 03:15:10;;;;;;;2.90;2.10;;;;;;;14.86;61.51;96017.44;5037189;28;24557;-70
2022/08/12 03:17:46;;;;;;;3.60;2.30;;;;;;;14.83;61.17;96012.44;5042286;28;24443;-70
2022/08/12 03:20:16;;;;;;;2.20;2.00;;;;;;;14.85;61.27;96014.00;5043031;28;24447;-70
2022/08/12 03:22:43;;;;;;;2.80;1.88;;;;;;;14.93;60.84;96010.81;5042415;28;24493;-70
2022/08/12 03:25:15;;;;;;;2.88;2.10;;;;;;;14.98;60.99;96019.09;5033562;28;24435;-70
2022/08/12 03:27:48;;;;;;;3.72;2.42;;;;;;;15.24;60.04;96020.56;5042524;28;24522;-70
2022/08/12 03:30:17;;;;;;;5.20;2.70;;;;;;;15.07;60.39;96020.19;5038455;28;24489;-70
2022/08/12 03:32:45;;;;;;;3.38;2.60;;;;;;;15.14;60.16;96018.78;5038408;28;24439;-70
2022/08/12 03:35:16;;;;;;;6.22;2.78;;;;;;;15.09;60.22;96026.97;5030946;28;24563;-69
2022/08/12 03:37:45;;;;;;;4.67;2.30;;;;;;;15.08;60.88;96016.63;5039360;28;24467;-71
2022/08/12 03:41:32;;;;;;;4.18;2.28;;;;;;;14.98;60.87;96014.75;5038180;28;24431;-71
2022/08/12 04:02:23;;;;;;;2.60;2.20;;;;;;;14.57;62.63;96020.44;5029807;28;25168;-71
2022/08/12 04:04:50;;;;;;;2.42;2.00;;;;;;;14.54;62.29;96025.09;5038778;28;24443;-71
2022/08/12 04:07:16;;;;;;;2.72;2.00;;;;;;;14.57;62.48;96024.84;5029773;28;24982;-71
2022/08/12 04:09:45;;;;;;;3.72;2.58;;;;;;;14.36;63.70;96032.44;5035471;28;24446;-69
2022/08/12 04:14:57;;;;;;;2.92;2.33;;;;;;;14.33;63.74;96030.06;5039409;28;24450;-71
2022/08/12 04:17:27;;;;;;;3.70;2.40;;;;;;;14.36;63.95;96019.44;5034503;28;24825;-70
2022/08/12 04:19:55;;;;;;;2.20;2.00;;;;;;;14.42;63.67;96027.59;5038928;28;24490;-70
2022/08/12 04:22:23;;;;;;;6.27;2.20;;;;;;;14.47;63.24;96022.06;5033930;28;24474;-73
2022/08/12 04:24:52;;;;;;;5.63;2.53;;;;;;;14.50;63.22;96021.88;5041569;28;24972;-69
2022/08/12 04:27:18;;;;;;;2.88;2.30;;;;;;;14.63;62.72;96021.78;5034460;28;24436;-70
2022/08/12 04:29:45;;;;;;;3.33;2.30;;;;;;;14.64;62.67;96028.66;5035795;28;24432;-71
2022/08/12 04:32:12;;;;;;;3.92;2.33;;;;;;;14.63;63.01;96027.81;5041120;28;24447;-69
2022/08/12 04:34:42;;;;;;;2.95;1.90;;;;;;;14.48;63.29;96027.16;5034708;28;25008;-70
2022/08/12 04:37:08;;;;;;;3.78;2.50;;;;;;;14.30;64.59;96031.13;5042347;28;24520;-70
2022/08/12 04:39:38;;;;;;;3.90;2.38;;;;;;;14.32;64.22;96028.41;5038264;28;24439;-71
2022/08/12 04:42:04;;;;;;;4.03;2.35;;;;;;;14.50;63.81;96022.69;5041875;28;24439;-70
2022/08/12 04:44:31;;;;;;;2.72;2.30;;;;;;;14.37;64.06;96015.88;5039558;28;25257;-70
2022/08/12 04:46:58;;;;;;;3.78;2.35;;;;;;;14.24;65.11;96028.97;5036197;28;24497;-69
2022/08/12 04:49:25;;;;;;;3.58;2.38;;;;;;;14.24;65.18;96024.59;5032872;28;25032;-70
2022/08/12 04:51:54;;;;;;;2.25;1.95;;;;;;;14.28;65.42;96018.22;5041758;28;24446;-69
2022/08/12 04:54:21;;;;;;;4.75;2.65;;;;;;;14.34;65.56;96018.69;5038622;28;24981;-69
2022/08/12 04:56:48;;;;;;;3.33;2.55;;;;;;;14.40;65.17;96008.66;5031377;28;24478;-70
2022/08/12 04:59:15;;;;;;;3.10;2.50;;;;;;;14.58;64.64;96011.72;5035331;28;24438;-70
2022/08/12 05:01:42;;;;;;;7.55;2.40;;;;;;;14.71;64.25;96004.59;5040857;28;25007;-69
2022/08/12 05:04:10;;;;;;;4.32;2.20;;;;;;;14.89;64.56;96007.59;5040362;28;25003;-69
2022/08/12 05:06:36;;;;;;;5.57;2.75;;;;;;;14.98;62.53;96009.53;5029977;28;25023;-71
2022/08/12 05:09:04;;;;;;;3.97;2.70;;;;;;;15.09;61.95;96013.91;5024467;28;24494;-70
2022/08/12 05:11:31;;;;;;;3.05;2.33;;;;;;;15.09;61.62;96011.31;5029199;28;24447;-71
2022/08/12 05:13:59;;;;;;;3.90;2.40;;;;;;;15.07;61.85;96010.59;5041441;28;24836;-71
2022/08/12 05:16:26;;;;;;;4.30;2.63;;;;;;;15.19;61.42;96014.03;5041411;28;24541;-71
2022/08/12 05:18:53;;;;;;;6.25;2.47;;;;;;;15.35;60.83;96011.03;5023477;28;24530;-71
2022/08/12 05:21:19;;;;;;;3.67;2.33;;;;;;;15.42;60.55;96012.22;5037389;28;24849;-70
2022/08/12 05:23:46;;;;;;;3.70;2.60;;;;;;;15.50;59.79;96017.69;5025239;28;24501;-69
2022/08/12 05:26:13;;;;;;;5.05;2.42;;;;;;;15.56;59.82;96021.59;5034938;28;24439;-71
2022/08/12 05:28:40;;;;;;;5.50;2.55;;;;;;;15.74;60.06;96020.19;5039044;28;24451;-67
2022/08/12 05:31:06;;;;;;;4.20;2.60;;;;;;;15.68;59.16;96026.72;5037517;28;24475;-70
2022/08/12 05:33:37;;;;;;;8.32;3.10;;;;;;;15.76;59.15;96026.13;5041062;28;24996;-69
2022/08/12 05:36:06;;;;;;;3.50;2.60;;;;;;;15.97;58.92;96031.41;5034620;28;24455;-72
2022/08/12 05:41:19;;;;;;;4.07;2.80;;;;;;;16.34;59.13;96034.47;5039138;28;24470;-70
2022/08/12 05:43:47;;;;;;;10.90;3.27;;;;;;;16.89;59.47;96026.50;5034068;28;24543;-69
2022/08/12 05:46:13;;;;;;;6.15;2.60;;;;;;;17.05;60.95;96026.84;5041331;28;24528;-69
2022/08/12 05:48:40;;;;;;;7.22;2.92;;;;;;;17.12;61.95;96022.75;5033655;28;24489;-70
2022/08/12 05:51:07;;;;;;;7.20;2.88;;;;;;;17.23;61.07;96026.25;5044916;28;24443;-70
2022/08/12 05:53:33;;;;;;;4.97;2.87;;;;;;;17.10;61.48;96027.31;5037854;28;24878;-70
2022/08/12 05:55:59;;;;;;;5.30;3.00;;;;;;;16.99;61.05;96027.41;5033230;28;24456;-70
2022/08/12 05:58:29;;;;;;;3.67;2.88;;;;;;;17.12;59.23;96029.78;5042384;28;24477;-69
2022/08/12 06:00:56;;;;;;;4.50;3.00;;;;;;;16.94;59.12;96040.00;5044765;28;24435;-70
2022/08/12 06:03:24;;;;;;;6.20;2.53;;;;;;;16.95;58.06;96039.09;5043501;28;24515;-70
2022/08/12 06:05:51;;;;;;;6.32;2.70;;;;;;;17.09;58.80;96043.13;5035473;28;24436;-70
2022/08/12 06:08:18;;;;;;;3.93;2.87;;;;;;;17.32;59.56;96047.25;5041334;28;24805;-70
2022/08/12 06:10:45;;;;;;;3.58;2.80;;;;;;;17.55;58.89;96054.94;5044325;28;25042;-70
2022/08/12 06:13:14;;;;;;;7.00;2.70;;;;;;;17.88;57.63;96056.44;5044725;28;24582;-70
2022/08/12 06:15:41;;;;;;;5.32;2.85;;;;;;;18.01;56.87;96057.00;5043723;28;24837;-70
2022/08/12 06:18:10;;;;;;;3.13;2.30;;;;;;;18.38;57.29;96053.75;5045001;28;24428;-70
2022/08/12 06:20:37;;;;;;;5.18;2.50;;;;;;;18.55;55.61;96049.63;5043368;28;24439;-69
2022/08/12 06:23:04;;;;;;;4.80;2.40;;;;;;;19.05;53.90;96054.69;5045617;28;24443;-70
2022/08/12 06:25:33;;;;;;;3.72;2.10;;;;;;;19.24;54.23;96048.56;5042448;28;24460;-70
2022/08/12 06:28:01;;;;;;;5.60;2.60;;;;;;;19.66;54.06;96054.25;5045823;28;24463;-70
2022/08/12 06:30:28;;;;;;;6.40;2.55;;;;;;;19.66;51.83;96059.50;5041588;28;24439;-70
2022/08/12 06:32:56;;;;;;;2.83;1.93;;;;;;;20.02;51.86;96049.91;5046327;28;24439;-70
2022/08/12 06:35:25;;;;;;;4.90;2.00;;;;;;;20.19;50.04;96050.91;5041181;28;24455;-70
2022/08/12 06:37:54;;;;;;;4.35;2.20;;;;;;;20.36;48.85;96051.91;5046361;28;25055;-71
2022/08/12 06:42:46;;;;;;;3.63;1.90;;;;;;;20.45;48.77;96043.09;5040732;28;24501;-69
2022/08/12 06:43:07;;;;;;;2.08;1.70;;;;;;;20.66;48.83;96042.84;5044129;28;24424;-70
2022/08/12 06:45:43;;;;;;;2.80;1.90;;;;;;;20.89;47.29;96042.34;5042585;28;24515;-70
2022/08/12 06:48:11;;;;;;;4.82;1.83;;;;;;;21.07;47.22;96029.97;5043674;28;24535;-71
2022/08/12 06:50:38;;;;;;;3.42;1.98;;;;;;;21.19;48.23;96036.63;5043090;28;24443;-70
2022/08/12 06:53:05;;;;;;;2.92;2.03;;;;;;;21.40;45.87;96038.94;5044059;28;24435;-70
2022/08/12 06:55:31;;;;;;;8.45;2.40;;;;;;;21.38;45.71;96040.88;5042250;28;24939;-69
2022/08/12 06:58:00;;;;;;;3.40;1.80;;;;;;;21.53;45.88;96037.66;5044005;28;24423;-70
2022/08/12 07:00:29;;;;;;;2.33;1.80;;;;;;;21.75;45.73;96039.72;5033569;28;24470;-70
2022/08/12 07:02:57;;;;;;;4.05;1.80;;;;;;;21.84;45.04;96038.81;5045027;28;24522;-69
2022/08/12 07:05:25;;;;;;;4.68;1.95;;;;;;;21.94;44.49;96041.28;5033896;28;24790;-69
2022/08/12 07:08:08;;;;;;;5.40;1.75;;;;;;;22.15;44.43;96044.34;5039995;28;24435;-70
2022/08/12 07:10:40;;;;;;;3.63;1.85;;;;;;;22.29;43.38;96048.19;5042097;28;24436;-70
2022/08/12 07:13:08;;;;;;;4.97;2.08;;;;;;;22.42;42.61;96042.41;5043043;28;24424;-71
2022/08/12 07:15:35;;;;;;;6.22;1.85;;;;;;;22.49;42.17;96043.41;5041877;28;24451;-70
2022/08/12 07:18:05;;;;;;;4.03;1.90;;;;;;;22.52;41.99;96052.84;5042907;28;24442;-70
2022/08/12 07:20:34;;;;;;;3.10;1.90;;;;;;;22.65;41.64;96042.59;5039890;28;24561;-71
2022/08/12 07:23:03;;;;;;;5.00;2.13;;;;;;;22.58;43.22;96044.25;5040253;28;24543;-70
2022/08/12 07:25:33;;;;;;;7.82;2.08;;;;;;;22.76;43.36;96034.34;5047916;28;24492;-69
2022/08/12 07:28:02;;;;;;;6.15;2.05;;;;;;;22.94;43.08;96037.66;5039849;28;24482;-70
2022/08/12 07:30:31;;;;;;;6.85;1.90;;;;;;;23.14;41.03;96032.06;5039353;28;24445;-70
2022/08/12 07:33:00;;;;;;;10.00;1.80;;;;;;;23.16;40.63;96036.16;5040396;28;24436;-70
2022/08/12 07:35:28;;;;;;;9.05;2.00;;;;;;;23.21;40.76;96042.75;5047177;28;24804;-70
2022/08/12 07:37:56;;;;;;;3.50;1.75;;;;;;;23.34;40.64;96040.44;5039690;28;24435;-71
2022/08/12 07:40:23;;;;;;;4.03;2.08;;;;;;;23.51;40.46;96038.56;5047057;28;24431;-71
2022/08/12 07:42:51;;;;;;;4.78;1.83;;;;;;;23.63;40.53;96043.31;5040082;28;24432;-70
2022/08/12 07:45:19;;;;;;;3.38;1.40;;;;;;;23.59;39.78;96046.47;5046597;28;24805;-71
2022/08/12 07:47:46;;;;;;;6.47;1.88;;;;;;;23.40;38.97;96051.16;5034889;28;24519;-71
2022/08/12 07:50:15;;;;;;;6.38;1.90;;;;;;;23.30;39.80;96053.16;5045943;28;24485;-71
2022/08/12 07:52:45;;;;;;;3.83;1.75;;;;;;;23.57;39.79;96048.47;5039721;28;24904;-72
2022/08/12 07:55:16;;;;;;;6.55;1.90;;;;;;;23.76;38.39;96039.34;5046342;28;24431;-71
2022/08/12 07:57:56;;;;;;;2.60;1.85;;;;;;;24.04;38.81;96047.66;5039249;28;25056;-70
2022/08/12 08:00:23;;;;;;;3.10;1.80;;;;;;;24.13;37.64;96041.31;5047044;28;24431;-71
2022/08/12 08:02:53;;;;;;;5.07;1.75;;;;;;;24.20;37.11;96050.19;5033480;28;24489;-70
2022/08/12 08:05:20;;;;;;;3.60;1.75;;;;;;;24.32;37.25;96043.50;5044739;28;24504;-71
2022/08/12 08:07:47;;;;;;;4.10;1.75;;;;;;;24.35;37.19;96048.44;5033859;28;25051;-70
2022/08/12 08:10:15;;;;;;;2.75;1.95;;;;;;;24.37;36.53;96046.47;5045386;28;24428;-72
2022/08/12 08:12:56;;;;;;;2.83;1.55;;;;;;;24.05;36.91;96044.00;5039559;28;24505;-71
2022/08/12 08:15:24;;;;;;;3.55;1.80;;;;;;;24.45;37.09;96047.44;5046608;28;24485;-72
2022/08/12 08:17:58;;;;;;;5.93;1.85;;;;;;;24.51;35.68;96049.38;5038514;28;24451;-72
2022/08/12 08:20:27;;;;;;;5.18;2.03;;;;;;;24.43;35.26;96050.25;5046252;28;24530;-71
2022/08/12 08:22:55;;;;;;;4.13;1.88;;;;;;;24.50;35.63;96048.56;5038784;28;24466;-70
2022/08/12 08:25:30;;;;;;;5.72;1.70;;;;;;;24.35;34.80;96047.63;5046182;28;24429;-69
2022/08/12 08:27:58;;;;;;;3.30;1.90;;;;;;;24.55;35.96;96056.81;5032271;28;24442;-72
2022/08/12 08:30:25;;;;;;;2.20;1.60;;;;;;;24.55;35.13;96056.00;5045722;28;24526;-71
2022/08/12 08:32:51;;;;;;;2.72;1.70;;;;;;;24.87;35.03;96053.06;5038579;28;24443;-72
2022/08/12 08:35:18;;;;;;;7.95;1.60;;;;;;;25.08;35.17;96051.59;5038188;28;24842;-72
2022/08/12 08:37:45;;;;;;;2.08;1.45;;;;;;;25.09;33.61;96053.22;5034768;28;24514;-72
2022/08/12 08:42:58;;;;;;;2.90;1.38;;;;;;;25.27;33.19;96052.94;5036379;28;24419;-70
2022/08/12 08:45:24;;;;;;;3.00;1.50;;;;;;;25.44;33.17;96056.22;5044764;28;24832;-72
2022/08/12 08:47:51;;;;;;;5.40;1.70;;;;;;;25.80;32.88;96057.16;5038096;28;24535;-72
2022/08/12 08:50:17;;;;;;;4.28;1.83;;;;;;;25.31;32.93;96051.56;5044522;28;24432;-70
2022/08/12 08:52:45;;;;;;;2.47;1.45;;;;;;;25.38;33.84;96054.31;5038350;28;24837;-69
2022/08/12 08:55:14;;;;;;;3.25;1.63;;;;;;;25.53;32.40;96055.97;5043551;28;24431;-69
2022/08/12 08:57:42;;;;;;;3.20;1.60;;;;;;;25.39;32.38;96046.16;5038579;28;24478;-70
2022/08/12 09:00:13;;;;;;;3.38;1.35;;;;;;;25.61;32.21;96033.81;5042369;28;24973;-70
2022/08/12 09:02:39;;;;;;;1.88;1.52;;;;;;;25.66;31.32;96039.44;5038871;28;24450;-72
2022/08/12 09:05:06;;;;;;;2.20;1.48;;;;;;;25.55;31.92;96034.59;5035604;28;24493;-70
2022/08/12 09:07:42;;;;;;;6.32;1.77;;;;;;;25.55;32.06;96035.41;5030109;28;24428;-70
2022/08/12 09:10:09;;;;;;;6.20;1.30;;;;;;;25.82;32.62;96036.59;5042055;28;24534;-69
2022/08/12 09:15:21;;;;;;;2.47;1.30;;;;;;;25.59;30.92;96036.69;5043643;28;24426;-72
2022/08/12 09:17:54;;;;;;;4.38;1.60;;;;;;;25.48;31.17;96042.44;5031153;28;24451;-71
2022/08/12 09:20:22;;;;;;;3.60;1.48;;;;;;;25.57;31.73;96037.84;5040871;28;24434;-70
2022/08/12 09:22:48;;;;;;;2.33;1.60;;;;;;;26.10;30.35;96043.03;5041452;28;24789;-70
2022/08/12 09:25:15;;;;;;;2.70;1.50;;;;;;;26.02;31.26;96041.31;5041064;28;25004;-71
2022/08/12 09:27:42;;;;;;;2.80;1.70;;;;;;;25.92;31.19;96040.78;5040958;28;24484;-71
2022/08/12 09:30:14;;;;;;;2.80;1.45;;;;;;;26.08;29.68;96031.81;5034575;28;24524;-71
2022/08/12 09:32:45;;;;;;;4.25;1.40;;;;;;;25.94;29.92;96025.50;5042438;28;24446;-71
2022/08/12 09:35:11;;;;;;;1.83;1.52;;;;;;;26.34;30.94;96029.44;5041248;28;24438;-71
2022/08/12 09:37:38;;;;;;;3.90;1.45;;;;;;;26.48;30.29;96023.28;5040667;28;24454;-71
2022/08/12 09:40:05;;;;;;;2.05;1.63;;;;;;;26.62;29.55;96016.25;5040799;28;24423;-71
2022/08/12 09:45:22;;;;;;;2.30;1.30;;;;;;;26.82;29.18;96015.63;5041026;28;24546;-71
2022/08/12 09:47:50;;;;;;;1.88;1.30;;;;;;;26.81;27.94;96003.34;5039062;28;24467;-71
2022/08/12 09:50:17;;;;;;;1.65;1.20;;;;;;;26.77;28.70;96011.72;5040749;28;24431;-71
2022/08/12 09:52:44;;;;;;;6.60;1.40;;;;;;;26.81;28.22;95998.88;5040180;28;24439;-72
2022/08/12 09:55:11;;;;;;;4.80;1.50;;;;;;;26.84;28.91;95993.16;5041221;28;24514;-71
2022/08/12 09:57:37;;;;;;;2.50;1.42;;;;;;;26.75;28.31;96000.44;5039854;28;24501;-69
2022/08/12 10:00:05;;;;;;;2.73;1.40;;;;;;;26.69;27.89;95995.88;5040863;28;24470;-72
2022/08/12 10:02:36;;;;;;;2.47;1.20;;;;;;;26.93;27.01;95994.66;5039692;28;24747;-70
2022/08/12 10:05:04;;;;;;;3.00;1.20;;;;;;;27.17;27.14;95982.78;5031877;28;24550;-70
2022/08/12 10:07:31;;;;;;;2.17;1.42;;;;;;;27.22;26.86;95987.53;5039309;28;25225;-70
2022/08/12 10:09:57;;;;;;;4.53;1.45;;;;;;;27.19;26.86;95975.44;5040554;28;24999;-70
2022/08/12 10:15:09;;;;;;;3.30;1.30;;;;;;;27.03;26.91;95976.56;5040518;28;24430;-70
2022/08/12 10:17:36;;;;;;;2.40;1.38;;;;;;;27.12;27.17;95968.44;5039257;28;24448;-70
2022/08/12 10:20:04;;;;;;;4.20;1.40;;;;;;;27.27;28.05;95964.66;5040774;28;24442;-72
2022/08/12 10:22:31;;;;;;;3.15;1.60;;;;;;;27.15;29.10;95970.72;5039633;28;24435;-72
2022/08/12 10:30:25;;;;;;;4.10;1.27;;;;;;;27.42;28.02;95963.72;5039737;28;25018;-72
2022/08/12 10:32:57;;;;;;;3.42;1.10;;;;;;;27.83;27.81;95952.25;5042042;28;25022;-71
2022/08/12 10:35:31;;;;;;;3.95;1.67;;;;;;;27.83;27.93;95957.59;5044105;28;24980;-72
2022/08/12 10:38:00;;;;;;;4.57;1.70;;;;;;;27.70;27.82;95964.47;5043976;28;24446;-70
2022/08/12 10:40:28;;;;;;;1.88;1.45;;;;;;;27.61;27.33;95949.69;5043181;28;24445;-72
2022/08/12 10:45:39;;;;;;;2.33;1.58;;;;;;;27.49;27.60;95951.28;5041416;28;24449;-72
2022/08/12 10:48:05;;;;;;;3.30;1.77;;;;;;;27.20;27.97;95950.50;5044435;28;24438;-72
2022/08/12 10:50:34;;;;;;;3.70;1.60;;;;;;;27.60;28.13;95956.03;5041994;28;24435;-72
2022/08/12 10:53:02;;;;;;;4.63;1.65;;;;;;;27.25;29.19;95963.19;5043674;28;24984;-72
2022/08/12 10:55:29;;;;;;;4.73;1.60;;;;;;;27.33;28.57;95960.41;5042818;28;24435;-72
2022/08/12 10:57:55;;;;;;;2.80;1.40;;;;;;;27.24;28.73;95953.59;5042828;28;24455;-72
2022/08/12 11:00:22;;;;;;;6.20;1.80;;;;;;;27.36;29.70;95949.34;5043635;28;24439;-72
2022/08/12 11:02:53;;;;;;;2.88;2.00;;;;;;;27.41;28.61;95944.28;5041829;28;24439;-72
2022/08/12 11:05:19;;;;;;;2.85;1.60;;;;;;;27.72;28.96;95942.97;5030896;28;24996;-72
2022/08/12 11:07:49;;;;;;;2.97;1.60;;;;;;;26.90;28.09;95930.44;5041070;28;24427;-72
2022/08/12 11:10:16;;;;;;;2.83;1.65;;;;;;;27.31;28.23;95943.81;5043638;28;24522;-72
2022/08/12 11:12:46;;;;;;;3.67;1.52;;;;;;;27.34;27.77;95946.09;5043578;28;24832;-72
2022/08/12 11:15:13;;;;;;;5.80;1.90;;;;;;;27.60;28.60;95940.06;5043617;28;24463;-72
2022/08/12 11:17:40;;;;;;;6.75;1.40;;;;;;;27.70;28.11;95945.00;5042721;28;24463;-72
2022/08/12 11:20:07;;;;;;;2.47;1.50;;;;;;;27.63;28.65;95945.00;5043168;28;24991;-72
2022/08/12 11:22:33;;;;;;;2.37;1.50;;;;;;;27.50;27.26;95943.09;5042838;28;24439;-72
2022/08/12 11:25:01;;;;;;;2.75;1.52;;;;;;;27.51;28.01;95935.91;5043508;28;24431;-72
2022/08/12 11:27:28;;;;;;;1.40;1.30;;;;;;;27.41;28.28;95936.31;5042828;28;24487;-72
2022/08/12 11:29:54;;;;;;;18.52;1.80;;;;;;;27.32;28.72;95934.81;5043020;28;24427;-72
2022/08/12 11:32:20;;;;;;;2.88;1.35;;;;;;;27.12;28.17;95929.38;5042280;28;25016;-72
2022/08/12 11:34:47;;;;;;;2.63;1.67;;;;;;;27.21;28.97;95922.88;5037369;28;24435;-72
2022/08/12 11:37:13;;;;;;;5.25;1.58;;;;;;;27.46;29.09;95919.75;5043499;28;24826;-72
2022/08/12 11:39:40;;;;;;;6.60;1.67;;;;;;;27.24;28.46;95927.81;5041915;28;25123;-71
2022/08/12 11:42:07;;;;;;;3.55;1.60;;;;;;;27.37;29.00;95920.94;5044064;28;24443;-72
2022/08/12 11:44:34;;;;;;;3.13;1.63;;;;;;;27.19;28.72;95919.63;5039327;28;24432;-71
2022/08/12 11:47:00;;;;;;;3.10;1.67;;;;;;;27.30;28.88;95920.09;5039378;28;24474;-71
2022/08/12 11:49:27;;;;;;;2.38;1.30;;;;;;;27.14;28.85;95914.03;5039410;28;24582;-71
2022/08/12 11:51:54;;;;;;;4.53;1.77;;;;;;;27.40;28.57;95916.06;5035681;28;24439;-70
2022/08/12 11:54:20;;;;;;;2.70;1.53;;;;;;;27.40;28.70;95912.53;5039370;28;25026;-71
2022/08/12 11:56:47;;;;;;;2.92;1.60;;;;;;;27.64;28.75;95909.38;5032612;28;24470;-71
2022/08/12 11:59:14;;;;;;;2.77;1.60;;;;;;;27.50;27.57;95913.81;5039121;28;24443;-70
2022/08/12 12:01:41;;;;;;;3.45;1.45;;;;;;;27.18;27.68;95904.69;5046039;28;25035;-70
2022/08/12 12:04:07;;;;;;;2.40;1.52;;;;;;;27.47;28.87;95905.41;5032711;28;24467;-70
2022/08/12 12:06:34;;;;;;;3.95;1.40;;;;;;;27.60;28.23;95900.16;5032888;28;24427;-69
2022/08/12 12:09:00;;;;;;;2.10;1.50;;;;;;;27.49;27.97;95909.53;5041223;28;24431;-72
2022/08/12 12:11:27;;;;;;;3.38;1.50;;;;;;;27.40;28.54;95905.41;5045842;28;24439;-71
2022/08/12 12:13:54;;;;;;;2.67;1.60;;;;;;;27.55;29.06;95905.28;5038964;28;24435;-72
2022/08/12 12:16:22;;;;;;;2.72;1.50;;;;;;;27.15;28.18;95902.41;5045241;28;24442;-72
2022/08/12 12:18:48;;;;;;;3.78;1.73;;;;;;;26.93;29.26;95896.31;5035897;28;24506;-72
2022/08/12 12:21:15;;;;;;;5.07;1.30;;;;;;;26.75;29.38;95893.34;5038580;28;24443;-71
2022/08/12 12:23:42;;;;;;;4.43;1.52;;;;;;;26.72;29.39;95896.38;5041716;28;24439;-72
2022/08/12 12:26:08;;;;;;;2.60;1.52;;;;;;;26.60;29.49;95892.63;5042959;28;24482;-72
2022/08/12 12:28:37;;;;;;;3.72;1.63;;;;;;;26.41;29.85;95881.63;5040383;28;24486;-72
2022/08/12 12:31:05;;;;;;;2.35;1.63;;;;;;;26.18;30.05;95899.59;5043158;28;24432;-71
2022/08/12 12:33:33;;;;;;;3.10;1.60;;;;;;;25.94;30.42;95893.66;5021461;28;24436;-70
2022/08/12 12:35:59;;;;;;;4.10;1.40;;;;;;;26.14;30.35;95888.56;5021817;28;24965;-72
2022/08/12 12:38:26;;;;;;;2.28;1.58;;;;;;;26.43;28.08;95879.59;5029511;28;24447;-72
2022/08/12 12:40:53;;;;;;;3.20;1.52;;;;;;;26.95;28.97;95881.00;5033735;28;24441;-70
2022/08/12 12:43:19;;;;;;;4.85;1.60;;;;;;;26.88;28.88;95879.31;5033508;28;24440;-70
2022/08/12 12:45:47;;;;;;;3.28;1.70;;;;;;;27.11;28.49;95879.91;5032042;28;24435;-71
2022/08/12 12:48:14;;;;;;;4.07;1.67;;;;;;;27.19;28.34;95879.75;5033965;28;24443;-69
2022/08/12 12:50:44;;;;;;;3.67;1.55;;;;;;;27.38;27.74;95877.38;5030997;28;25001;-69
2022/08/12 12:53:14;;;;;;;2.50;1.50;;;;;;;27.24;27.77;95882.63;5029433;28;24439;-72
2022/08/12 12:55:42;;;;;;;3.17;1.40;;;;;;;27.39;28.70;95869.19;5024030;28;24449;-70
2022/08/12 12:58:15;;;;;;;4.60;1.40;;;;;;;27.35;26.88;95873.25;5025140;28;24452;-70
2022/08/12 13:00:43;;;;;;;3.70;1.48;;;;;;;27.41;26.79;95874.31;5025979;28;24447;-71
2022/08/12 13:03:11;;;;;;;3.33;1.30;;;;;;;27.36;26.79;95866.91;5031379;28;24459;-72
2022/08/12 13:05:42;;;;;;;3.58;1.30;;;;;;;27.39;26.86;95869.19;5034640;28;25052;-71
2022/08/12 13:08:23;;;;;;;4.23;1.30;;;;;;;27.33;26.16;95871.81;5033447;28;24530;-71
2022/08/12 13:10:50;;;;;;;2.90;1.30;;;;;;;27.42;26.11;95875.94;5033430;28;24431;-72
2022/08/12 13:13:18;;;;;;;3.42;1.50;;;;;;;27.44;26.45;95871.22;5033566;28;24453;-72
2022/08/12 13:15:45;;;;;;;3.45;1.50;;;;;;;27.29;27.43;95870.56;5035568;28;24438;-71
2022/08/12 13:18:11;;;;;;;2.90;1.70;;;;;;;27.52;26.20;95867.59;5033238;28;24458;-71
2022/08/12 13:20:38;;;;;;;5.70;1.55;;;;;;;27.29;25.73;95867.91;5034735;28;24439;-72
2022/08/12 13:23:06;;;;;;;3.95;1.40;;;;;;;26.91;25.86;95870.97;5020224;28;25188;-70
2022/08/12 13:25:34;;;;;;;2.33;1.20;;;;;;;26.74;25.95;95867.81;5025259;28;24435;-71